地図

経路データ

SID SEASON NUMBER BASIN SUBBASIN NAME ISO_TIME NATURE LAT LON WMO_WIND WMO_PRES WMO_AGENCY TRACK_TYPE DIST2LAND LANDFALL IFLAG USA_AGENCY USA_ATCF_ID USA_LAT USA_LON USA_RECORD USA_STATUS USA_WIND USA_PRES USA_SSHS USA_R34_NE USA_R34_SE USA_R34_SW USA_R34_NW USA_R50_NE USA_R50_SE USA_R50_SW USA_R50_NW USA_R64_NE USA_R64_SE USA_R64_SW USA_R64_NW USA_POCI USA_ROCI USA_RMW USA_EYE TOKYO_LAT TOKYO_LON TOKYO_GRADE TOKYO_WIND TOKYO_PRES TOKYO_R50_DIR TOKYO_R50_LONG TOKYO_R50_SHORT TOKYO_R30_DIR TOKYO_R30_LONG TOKYO_R30_SHORT TOKYO_LAND CMA_LAT CMA_LON CMA_CAT CMA_WIND CMA_PRES HKO_LAT HKO_LON HKO_CAT HKO_WIND HKO_PRES NEWDELHI_LAT NEWDELHI_LON NEWDELHI_GRADE NEWDELHI_WIND NEWDELHI_PRES NEWDELHI_CI NEWDELHI_DP NEWDELHI_POCI REUNION_LAT REUNION_LON REUNION_TYPE REUNION_WIND REUNION_PRES REUNION_TNUM REUNION_CI REUNION_RMW REUNION_R34_NE REUNION_R34_SE REUNION_R34_SW REUNION_R34_NW REUNION_R50_NE REUNION_R50_SE REUNION_R50_SW REUNION_R50_NW REUNION_R64_NE REUNION_R64_SE REUNION_R64_SW REUNION_R64_NW BOM_LAT BOM_LON BOM_TYPE BOM_WIND BOM_PRES BOM_TNUM BOM_CI BOM_RMW BOM_R34_NE BOM_R34_SE BOM_R34_SW BOM_R34_NW BOM_R50_NE BOM_R50_SE BOM_R50_SW BOM_R50_NW BOM_R64_NE BOM_R64_SE BOM_R64_SW BOM_R64_NW BOM_ROCI BOM_POCI BOM_EYE BOM_POS_METHOD BOM_PRES_METHOD NADI_LAT NADI_LON NADI_CAT NADI_WIND NADI_PRES WELLINGTON_LAT WELLINGTON_LON WELLINGTON_WIND WELLINGTON_PRES DS824_LAT DS824_LON DS824_STAGE DS824_WIND DS824_PRES TD9636_LAT TD9636_LON TD9636_STAGE TD9636_WIND TD9636_PRES TD9635_LAT TD9635_LON TD9635_WIND TD9635_PRES TD9635_ROCI NEUMANN_LAT NEUMANN_LON NEUMANN_CLASS NEUMANN_WIND NEUMANN_PRES MLC_LAT MLC_LON MLC_CLASS MLC_WIND MLC_PRES USA_GUST BOM_GUST BOM_GUST_PER REUNION_GUST REUNION_GUST_PER USA_SEAHGT USA_SEARAD_NE USA_SEARAD_SE USA_SEARAD_SW USA_SEARAD_NW STORM_SPEED STORM_DIR
1990229N11261 1990 69 EP MM JULIO 1990-08-17 00:00:00 TS 11.1000 -99.0000 25 1012 hurdat_epa main 563 561 O_____________ hurdat_epa EP131990 11.1000 -99.0000 TD 25 1012 -1 18 282
1990229N11261 1990 69 EP MM JULIO 1990-08-17 03:00:00 TS 11.2981 -99.9173 main 573 573 P_____________ EP131990 11.2981 -99.9173 TD 25 1012 -1 18 283
1990229N11261 1990 69 EP MM JULIO 1990-08-17 06:00:00 TS 11.5000 -100.800 25 1012 hurdat_epa main 587 586 O_____________ hurdat_epa EP131990 11.5000 -100.800 TD 25 1012 -1 17 284
1990229N11261 1990 69 EP MM JULIO 1990-08-17 09:00:00 TS 11.7072 -101.623 main 596 593 P_____________ EP131990 11.7072 -101.623 TD 25 1011 -1 16 284
1990229N11261 1990 69 EP MM JULIO 1990-08-17 12:00:00 TS 11.9000 -102.400 25 1011 hurdat_epa main 611 611 O_____________ hurdat_epa EP131990 11.9000 -102.400 TD 25 1011 -1 15 283
1990229N11261 1990 69 EP MM JULIO 1990-08-17 15:00:00 TS 12.0572 -103.158 main 624 624 P_____________ EP131990 12.0572 -103.158 TD 25 1010 -1 15 282
1990229N11261 1990 69 EP MM JULIO 1990-08-17 18:00:00 TS 12.2000 -103.900 25 1010 hurdat_epa main 645 645 O_____________ hurdat_epa EP131990 12.2000 -103.900 TD 25 1010 -1 15 281
1990229N11261 1990 69 EP MM JULIO 1990-08-17 21:00:00 TS 12.3575 -104.672 main 666 666 P_____________ EP131990 12.3575 -104.672 TD 27 1009 -1 15 282
1990229N11261 1990 69 EP MM JULIO 1990-08-18 00:00:00 TS 12.5000 -105.400 30 1009 hurdat_epa main 680 680 O_____________ hurdat_epa EP131990 12.5000 -105.400 TD 30 1009 -1 13 281
1990229N11261 1990 69 EP MM JULIO 1990-08-18 03:00:00 TS 12.6147 -106.023 main 691 690 P_____________ EP131990 12.6147 -106.023 TD 32 1007 -1 12 280
1990229N11261 1990 69 EP MM JULIO 1990-08-18 06:00:00 TS 12.7000 -106.600 35 1005 hurdat_epa main 709 709 O_____________ hurdat_epa EP131990 12.7000 -106.600 TS 35 1005 0 12 276
1990229N11261 1990 69 EP MM JULIO 1990-08-18 09:00:00 TS 12.7350 -107.215 main 741 741 P_____________ EP131990 12.7350 -107.215 TS 37 1003 0 12 275
1990229N11261 1990 69 EP MM JULIO 1990-08-18 12:00:00 TS 12.8000 -107.800 40 1001 hurdat_epa main 768 768 O_____________ hurdat_epa EP131990 12.8000 -107.800 TS 40 1001 0 11 283
1990229N11261 1990 69 EP MM JULIO 1990-08-18 15:00:00 TS 12.9697 -108.293 main 784 784 P_____________ EP131990 12.9697 -108.293 TS 42 999 0 11 292
1990229N11261 1990 69 EP MM JULIO 1990-08-18 18:00:00 TS 13.2000 -108.800 45 998 hurdat_epa main 795 792 O_____________ hurdat_epa EP131990 13.2000 -108.800 TS 45 998 0 12 293
1990229N11261 1990 69 EP MM JULIO 1990-08-18 21:00:00 TS 13.4350 -109.428 main 813 811 P_____________ EP131990 13.4350 -109.428 TS 47 996 0 14 292
1990229N11261 1990 69 EP MM JULIO 1990-08-19 00:00:00 TS 13.7000 -110.100 50 994 hurdat_epa main 835 834 O_____________ hurdat_epa EP131990 13.7000 -110.100 TS 50 994 0 14 294
1990229N11261 1990 69 EP MM JULIO 1990-08-19 03:00:00 TS 13.9999 -110.758 main 864 863 P_____________ EP131990 13.9999 -110.758 TS 55 992 0 14 295
1990229N11261 1990 69 EP MM JULIO 1990-08-19 06:00:00 TS 14.3000 -111.400 60 991 hurdat_epa main 886 886 O_____________ hurdat_epa EP131990 14.3000 -111.400 TS 60 991 0 13 295
1990229N11261 1990 69 EP MM JULIO 1990-08-19 09:00:00 TS 14.5573 -112.015 main 912 912 P_____________ EP131990 14.5573 -112.015 TS 62 989 0 13 293
1990229N11261 1990 69 EP MM JULIO 1990-08-19 12:00:00 TS 14.8000 -112.600 65 988 hurdat_epa main 946 931 O_____________ hurdat_epa EP131990 14.8000 -112.600 HU 65 988 1 12 295
1990229N11261 1990 69 EP MM JULIO 1990-08-19 15:00:00 TS 15.0649 -113.165 main 935 930 P_____________ EP131990 15.0649 -113.165 HU 67 986 1 12 295
1990229N11261 1990 69 EP MM JULIO 1990-08-19 18:00:00 TS 15.3000 -113.700 70 985 hurdat_epa main 934 928 O_____________ hurdat_epa EP131990 15.3000 -113.700 HU 70 985 1 11 292
1990229N11261 1990 69 EP MM JULIO 1990-08-19 21:00:00 TS 15.4648 -114.208 main 937 937 P_____________ EP131990 15.4648 -114.208 HU 72 983 1 10 287
1990229N11261 1990 69 EP MM JULIO 1990-08-20 00:00:00 TS 15.6000 -114.700 75 981 hurdat_epa main 953 953 O_____________ hurdat_epa EP131990 15.6000 -114.700 HU 75 981 1 10 287
1990229N11261 1990 69 EP MM JULIO 1990-08-20 03:00:00 TS 15.7574 -115.200 main 963 963 P_____________ EP131990 15.7574 -115.200 HU 77 979 1 10 287
1990229N11261 1990 69 EP MM JULIO 1990-08-20 06:00:00 TS 15.9000 -115.700 80 978 hurdat_epa main 984 984 O_____________ hurdat_epa EP131990 15.9000 -115.700 HU 80 978 1 10 284
1990229N11261 1990 69 EP MM JULIO 1990-08-20 09:00:00 TS 16.0074 -116.208 main 1008 1008 P_____________ EP131990 16.0074 -116.208 HU 82 976 1 10 282
1990229N11261 1990 69 EP MM JULIO 1990-08-20 12:00:00 TS 16.1000 -116.700 85 974 hurdat_epa main 1034 1034 O_____________ hurdat_epa EP131990 16.1000 -116.700 HU 85 974 2 9 281
1990229N11261 1990 69 EP MM JULIO 1990-08-20 15:00:00 TS 16.1924 -117.158 main 1062 1062 P_____________ EP131990 16.1924 -117.158 HU 87 972 2 9 283
1990229N11261 1990 69 EP MM JULIO 1990-08-20 18:00:00 TS 16.3000 -117.600 90 970 hurdat_epa main 1085 1085 O_____________ hurdat_epa EP131990 16.3000 -117.600 HU 90 970 2 9 287
1990229N11261 1990 69 EP MM JULIO 1990-08-20 21:00:00 TS 16.4574 -118.042 main 1101 1101 P_____________ EP131990 16.4574 -118.042 HU 92 968 2 9 289
1990229N11261 1990 69 EP MM JULIO 1990-08-21 00:00:00 TS 16.6000 -118.500 95 966 hurdat_epa main 1123 1123 O_____________ hurdat_epa EP131990 16.6000 -118.500 HU 95 966 2 9 282
1990229N11261 1990 69 EP MM JULIO 1990-08-21 03:00:00 TS 16.6574 -118.985 main 1146 1146 P_____________ EP131990 16.6574 -118.985 HU 97 964 3 10 276
1990229N11261 1990 69 EP MM JULIO 1990-08-21 06:00:00 TS 16.7000 -119.500 100 962 hurdat_epa main 1179 1179 O_____________ hurdat_epa EP131990 16.7000 -119.500 HU 100 962 3 10 278
1990229N11261 1990 69 EP MM JULIO 1990-08-21 09:00:00 TS 16.8074 -120.035 main 1205 1205 P_____________ EP131990 16.8074 -120.035 HU 100 961 3 11 281
1990229N11261 1990 69 EP MM JULIO 1990-08-21 12:00:00 TS 16.9000 -120.600 100 960 hurdat_epa main 1240 1240 O_____________ hurdat_epa EP131990 16.9000 -120.600 HU 100 960 3 11 276
1990229N11261 1990 69 EP MM JULIO 1990-08-21 15:00:00 TS 16.9149 -121.193 main 1285 1285 P_____________ EP131990 16.9149 -121.193 HU 100 960 3 11 270
1990229N11261 1990 69 EP MM JULIO 1990-08-21 18:00:00 TS 16.9000 -121.800 100 960 hurdat_epa main 1331 1331 O_____________ hurdat_epa EP131990 16.9000 -121.800 HU 100 960 3 12 269
1990229N11261 1990 69 EP MM JULIO 1990-08-21 21:00:00 TS 16.8998 -122.400 main 1378 1378 P_____________ EP131990 16.8998 -122.400 HU 100 960 3 11 270
1990229N11261 1990 69 EP MM JULIO 1990-08-22 00:00:00 TS 16.9000 -123.000 100 961 hurdat_epa main 1426 1426 O_____________ hurdat_epa EP131990 16.9000 -123.000 HU 100 961 3 11 270
1990229N11261 1990 69 EP MM JULIO 1990-08-22 03:00:00 TS 16.8998 -123.593 main 1476 1476 P_____________ EP131990 16.8998 -123.593 HU 97 962 3 11 270
1990229N11261 1990 69 EP MM JULIO 1990-08-22 06:00:00 TS 16.9000 -124.200 95 963 hurdat_epa main 1526 1526 O_____________ hurdat_epa EP131990 16.9000 -124.200 HU 95 963 2 12 270
1990229N11261 1990 69 EP MM JULIO 1990-08-22 09:00:00 TS 16.8998 -124.835 main 1571 1571 P_____________ EP131990 16.8998 -124.835 HU 87 966 2 12 270
1990229N11261 1990 69 EP MM JULIO 1990-08-22 12:00:00 TS 16.9000 -125.500 80 970 hurdat_epa main 1618 1618 O_____________ hurdat_epa EP131990 16.9000 -125.500 HU 80 970 1 13 270
1990229N11261 1990 69 EP MM JULIO 1990-08-22 15:00:00 TS 16.9073 -126.185 main 1666 1666 P_____________ EP131990 16.9073 -126.185 HU 72 976 1 13 270
1990229N11261 1990 69 EP MM JULIO 1990-08-22 18:00:00 TS 16.9000 -126.900 65 982 hurdat_epa main 1716 1716 O_____________ hurdat_epa EP131990 16.9000 -126.900 HU 65 982 1 14 268
1990229N11261 1990 69 EP MM JULIO 1990-08-22 21:00:00 TS 16.8495 -127.620 main 1776 1776 P_____________ EP131990 16.8495 -127.620 HU 60 986 0 14 266
1990229N11261 1990 69 EP MM JULIO 1990-08-23 00:00:00 TS 16.8000 -128.400 55 990 hurdat_epa main 1837 1837 O_____________ hurdat_epa EP131990 16.8000 -128.400 TS 55 990 0 16 267
1990229N11261 1990 69 EP MM JULIO 1990-08-23 03:00:00 TS 16.7777 -129.300 main 1907 1907 P_____________ EP131990 16.7777 -129.300 TS 52 993 0 17 270
1990229N11261 1990 69 EP MM JULIO 1990-08-23 06:00:00 TS 16.8000 -130.200 50 997 hurdat_epa main 1979 1979 O_____________ hurdat_epa EP131990 16.8000 -130.200 TS 50 997 0 16 273
1990229N11261 1990 69 EP MM JULIO 1990-08-23 09:00:00 TS 16.8622 -130.995 main 2037 2037 P_____________ EP131990 16.8622 -130.995 TS 47 999 0 15 278
1990229N11261 1990 69 EP MM JULIO 1990-08-23 12:00:00 TS 17.0000 -131.700 45 1001 hurdat_epa main 2088 2088 O_____________ hurdat_epa EP131990 17.0000 -131.700 TS 45 1001 0 13 287
1990229N11261 1990 69 EP MM JULIO 1990-08-23 15:00:00 TS 17.2421 -132.322 main 2125 2125 P_____________ EP131990 17.2421 -132.322 TS 42 1003 0 13 294
1990229N11261 1990 69 EP MM JULIO 1990-08-23 18:00:00 TS 17.5000 -132.900 40 1005 hurdat_epa main 2157 2157 O_____________ hurdat_epa EP131990 17.5000 -132.900 TS 40 1005 0 12 292
1990229N11261 1990 69 EP MM JULIO 1990-08-23 21:00:00 TS 17.6873 -133.500 main 2197 2187 P_____________ EP131990 17.6873 -133.500 TS 37 1005 0 12 285
1990229N11261 1990 69 EP MM JULIO 1990-08-24 00:00:00 TS 17.8000 -134.100 35 1006 hurdat_epa main 2187 2125 O_____________ hurdat_epa EP131990 17.8000 -134.100 TS 35 1006 0 11 278
1990229N11261 1990 69 EP MM JULIO 1990-08-24 03:00:00 TS 17.8372 -134.693 main 2125 2062 P_____________ EP131990 17.8372 -134.693 TS 32 1007 -1 11 270
1990229N11261 1990 69 EP MM JULIO 1990-08-24 06:00:00 TS 17.8000 -135.300 30 1008 hurdat_epa main 2062 2001 O_____________ hurdat_epa EP131990 17.8000 -135.300 TD 30 1008 -1 12 265
1990229N11261 1990 69 EP MM JULIO 1990-08-24 09:00:00 TS 17.7374 -135.950 main 2001 1929 P_____________ EP131990 17.7374 -135.950 TD 30 1008 -1 13 261
1990229N11261 1990 69 EP MM JULIO 1990-08-24 12:00:00 TS 17.6000 -136.600 30 1009 hurdat_epa main 1929 1870 O_____________ hurdat_epa EP131990 17.6000 -136.600 TD 30 1009 -1 13 253
1990229N11261 1990 69 EP MM JULIO 1990-08-24 15:00:00 TS 17.3753 -137.213 main 1870 1814 P_____________ EP131990 17.3753 -137.213 TD 27 1009 -1 13 246
1990229N11261 1990 69 EP MM JULIO 1990-08-24 18:00:00 TS 17.1000 -137.800 25 1010 hurdat_epa main 1814 O_____________ hurdat_epa EP131990 17.1000 -137.800 TD 25 1010 -1 13 244

IBTrACS Databaseについて

本データベースは、米国NOAAが公開する1842年以降の世界の熱帯低気圧のベストトラックデータアーカイブInternational Best Track Archive for Climate Stewardship (IBTrACS)を、ウェブで閲覧しやすい形式に変換したものです。

最終更新日:2021-11-26